Time;durP1;ratioP1;P1;durP2;ratioP2;P2;SDS_P1;SDS_P2;PMS_P1;PMS_P2;Temp;Humidity;BMP_temperature;BMP_pressure;BME280_temperature;BME280_humidity;BME280_pressure;Samples;Min_cycle;Max_cycle;Signal;HPM_P1;HPM_P2
2021/11/08 00:00:39;;;;;;;23.58;15.00;;;5.30;99.90;;;;;;5096483;28;20562;-66
2021/11/08 00:03:09;;;;;;;23.65;14.98;;;5.30;99.90;;;;;;5096601;28;20204;-66
2021/11/08 00:05:42;;;;;;;25.98;15.77;;;5.30;99.90;;;;;;5096648;28;20282;-66
2021/11/08 00:08:11;;;;;;;25.02;16.17;;;5.30;99.90;;;;;;5096311;28;20230;-67
2021/11/08 00:10:38;;;;;;;27.25;16.40;;;5.20;99.90;;;;;;5096735;28;20301;-67
2021/11/08 00:13:08;;;;;;;22.02;15.07;;;5.10;99.90;;;;;;5096537;28;20210;-67
2021/11/08 00:18:13;;;;;;;22.33;14.38;;;5.00;99.90;;;;;;5096400;28;20221;-67
2021/11/08 00:23:09;;;;;;;24.15;13.88;;;4.80;99.90;;;;;;5096371;28;20192;-67
2021/11/08 00:25:38;;;;;;;24.83;14.18;;;4.70;99.90;;;;;;5096401;28;20211;-67
2021/11/08 00:28:07;;;;;;;22.38;16.30;;;4.80;99.90;;;;;;5096093;28;20257;-66
2021/11/08 00:30:35;;;;;;;28.17;15.77;;;4.80;99.90;;;;;;5096219;28;20199;-66
2021/11/08 00:33:03;;;;;;;24.88;14.60;;;4.90;99.90;;;;;;5096118;28;20206;-66
2021/11/08 00:35:30;;;;;;;22.08;14.27;;;4.90;99.90;;;;;;5095858;28;20651;-67
2021/11/08 00:37:57;;;;;;;28.17;15.10;;;4.90;99.90;;;;;;5095993;28;20188;-67
2021/11/08 00:40:23;;;;;;;26.50;15.02;;;5.00;99.90;;;;;;5096177;28;20188;-66
2021/11/08 00:42:50;;;;;;;22.13;14.88;;;5.00;99.90;;;;;;5096011;28;20333;-66
2021/11/08 00:45:16;;;;;;;26.73;15.13;;;4.90;99.90;;;;;;5095865;28;20188;-66
2021/11/08 00:47:42;;;;;;;19.52;13.88;;;4.90;99.90;;;;;;5095911;28;20194;-66
2021/11/08 00:50:11;;;;;;;26.38;13.63;;;4.80;99.90;;;;;;5094547;28;20235;-66
2021/11/08 00:52:37;;;;;;;26.38;15.00;;;4.90;99.90;;;;;;5095949;28;20194;-66
2021/11/08 00:55:04;;;;;;;25.25;14.40;;;4.90;99.90;;;;;;5095284;28;20230;-68
2021/11/08 00:57:33;;;;;;;21.45;14.95;;;4.80;99.90;;;;;;5077518;28;20291;-66
2021/11/08 01:00:01;;;;;;;25.70;14.32;;;4.80;99.90;;;;;;5095194;28;20282;-66
2021/11/08 01:02:29;;;;;;;20.38;15.20;;;4.70;99.90;;;;;;5095729;28;20223;-66
2021/11/08 01:04:59;;;;;;;23.42;14.95;;;4.80;99.90;;;;;;5095437;28;20188;-67
2021/11/08 01:07:27;;;;;;;28.25;16.15;;;4.90;99.90;;;;;;5096007;28;20199;-66
2021/11/08 01:09:53;;;;;;;21.50;15.85;;;4.90;99.90;;;;;;5095485;28;20223;-67
2021/11/08 01:12:22;;;;;;;24.60;14.90;;;4.90;99.90;;;;;;5095488;28;20205;-67
2021/11/08 01:14:49;;;;;;;30.65;15.38;;;4.90;99.90;;;;;;5095580;28;20203;-67
2021/11/08 01:17:15;;;;;;;21.88;15.25;;;4.90;99.90;;;;;;5095435;28;20195;-67
2021/11/08 01:19:42;;;;;;;23.92;16.38;;;4.80;99.90;;;;;;5096116;28;20195;-68
2021/11/08 01:22:19;;;;;;;23.08;13.52;;;4.70;99.90;;;;;;5095341;28;20199;-67
2021/11/08 01:24:57;;;;;;;23.33;15.18;;;4.60;99.90;;;;;;5094934;28;20203;-67
2021/11/08 01:27:42;;;;;;;28.25;14.77;;;4.50;99.90;;;;;;5076752;28;20206;-67
2021/11/08 01:30:20;;;;;;;24.60;14.23;;;4.50;99.90;;;;;;5094591;28;20643;-67
2021/11/08 01:33:08;;;;;;;22.40;12.90;;;4.50;99.90;;;;;;5095048;28;20168;-67
2021/11/08 01:35:41;;;;;;;18.65;13.20;;;4.40;99.90;;;;;;5095143;28;20186;-67
2021/11/08 01:38:20;;;;;;;25.67;14.07;;;4.30;99.90;;;;;;5095442;28;20191;-67
2021/11/08 01:40:48;;;;;;;20.10;13.45;;;4.20;99.90;;;;;;5094768;28;20211;-67
2021/11/08 01:43:14;;;;;;;16.13;12.13;;;4.20;99.90;;;;;;5094778;28;20188;-67
2021/11/08 01:45:42;;;;;;;21.58;13.20;;;4.10;99.90;;;;;;5094629;28;20195;-67
2021/11/08 01:48:11;;;;;;;23.05;13.13;;;4.10;99.90;;;;;;5094706;28;20215;-67
2021/11/08 01:50:38;;;;;;;33.25;13.02;;;4.00;99.90;;;;;;5094606;28;20228;-67
2021/11/08 01:53:05;;;;;;;18.02;13.63;;;4.10;99.90;;;;;;5094600;28;20211;-67
2021/11/08 01:55:32;;;;;;;23.08;13.15;;;4.10;99.90;;;;;;5094566;28;20191;-67
2021/11/08 01:58:00;;;;;;;21.60;13.13;;;4.10;99.90;;;;;;5094729;28;20689;-67
2021/11/08 02:00:28;;;;;;;16.25;12.38;;;4.00;99.90;;;;;;5094262;28;20204;-67
2021/11/08 02:02:55;;;;;;;21.50;12.55;;;4.00;99.90;;;;;;5094137;28;20235;-67
2021/11/08 02:05:21;;;;;;;13.40;11.35;;;3.90;99.90;;;;;;5094356;28;20198;-67
2021/11/08 02:07:48;;;;;;;20.52;12.23;;;3.80;99.90;;;;;;5094282;28;20188;-67
2021/11/08 02:10:16;;;;;;;16.50;12.25;;;3.80;99.90;;;;;;5094182;28;20206;-67
2021/11/08 02:12:43;;;;;;;17.58;12.02;;;3.70;99.90;;;;;;5094304;28;20198;-67
2021/11/08 02:15:16;;;;;;;16.88;12.10;;;3.60;99.90;;;;;;5094106;28;20198;-67
2021/11/08 02:17:46;;;;;;;22.48;12.43;;;3.50;99.90;;;;;;5094032;28;20187;-67
2021/11/08 02:20:21;;;;;;;22.88;11.68;;;3.50;99.90;;;;;;5094815;28;20649;-67
2021/11/08 02:22:52;;;;;;;18.13;12.40;;;3.50;99.90;;;;;;5093571;28;20211;-67
2021/11/08 02:25:20;;;;;;;23.27;11.80;;;3.60;99.90;;;;;;5092630;28;20215;-67
2021/11/08 02:27:48;;;;;;;21.65;12.50;;;3.60;99.90;;;;;;5094034;28;20207;-67
2021/11/08 02:30:15;;;;;;;21.00;11.10;;;3.50;99.90;;;;;;5093837;28;20264;-67
2021/11/08 02:32:42;;;;;;;17.90;11.68;;;3.50;99.90;;;;;;5093303;28;20203;-67
2021/11/08 02:35:11;;;;;;;19.58;13.57;;;3.50;99.90;;;;;;5093873;28;20602;-67
2021/11/08 02:37:38;;;;;;;24.63;12.55;;;3.60;99.90;;;;;;5093915;28;20199;-67
2021/11/08 02:40:08;;;;;;;21.63;12.05;;;3.60;99.90;;;;;;5093467;28;20695;-67
2021/11/08 02:42:35;;;;;;;20.92;13.43;;;3.60;99.90;;;;;;5093788;28;20199;-67
2021/11/08 02:45:06;;;;;;;14.95;11.82;;;3.60;99.90;;;;;;5075647;28;20203;-67
2021/11/08 02:47:33;;;;;;;17.73;12.30;;;3.70;99.90;;;;;;5093356;28;20203;-68
2021/11/08 02:50:02;;;;;;;16.60;12.43;;;3.70;99.90;;;;;;5093330;28;20235;-67
2021/11/08 02:52:28;;;;;;;26.83;14.25;;;3.70;99.90;;;;;;5092184;28;20207;-67
2021/11/08 02:54:55;;;;;;;21.42;11.95;;;3.80;99.90;;;;;;5093241;28;20229;-67
2021/11/08 02:57:24;;;;;;;28.48;12.50;;;3.90;99.90;;;;;;5093433;28;20195;-67
2021/11/08 02:59:51;;;;;;;16.75;11.10;;;3.90;99.90;;;;;;5093226;28;20207;-67
2021/11/08 03:02:19;;;;;;;20.70;12.35;;;3.90;99.90;;;;;;5092946;28;20203;-67
2021/11/08 03:04:49;;;;;;;21.20;11.43;;;4.00;99.90;;;;;;5093476;28;20539;-67
2021/11/08 03:07:16;;;;;;;20.17;11.00;;;4.00;99.90;;;;;;5092859;28;20673;-67
2021/11/08 03:09:50;;;;;;;18.48;11.38;;;3.90;99.90;;;;;;5093426;28;20203;-67
2021/11/08 03:12:22;;;;;;;17.45;10.75;;;3.90;99.90;;;;;;5092848;28;20256;-67
2021/11/08 03:17:34;;;;;;;14.77;11.10;;;3.90;99.90;;;;;;5093293;28;20584;-67
2021/11/08 03:20:04;;;;;;;17.30;10.95;;;3.80;99.90;;;;;;5093542;28;20185;-67
2021/11/08 03:22:34;;;;;;;17.35;11.32;;;3.80;99.90;;;;;;5093341;28;20176;-67
2021/11/08 03:25:11;;;;;;;19.02;10.82;;;3.70;99.90;;;;;;5093100;28;20650;-67
2021/11/08 03:27:57;;;;;;;17.33;10.40;;;3.70;99.90;;;;;;5093259;28;20207;-67
2021/11/08 03:30:35;;;;;;;19.17;9.90;;;3.70;99.90;;;;;;5093325;28;20234;-67
2021/11/08 03:33:03;;;;;;;13.23;10.10;;;3.60;99.90;;;;;;5092849;28;20200;-67
2021/11/08 03:35:31;;;;;;;14.88;10.50;;;3.60;99.90;;;;;;5092925;28;20203;-68
2021/11/08 03:37:58;;;;;;;14.70;10.10;;;3.60;99.90;;;;;;5093366;28;20187;-68
2021/11/08 03:40:29;;;;;;;18.75;10.45;;;3.70;99.90;;;;;;5093397;28;20650;-68
2021/11/08 03:42:56;;;;;;;15.85;10.27;;;3.60;99.90;;;;;;5093248;28;20584;-67
2021/11/08 03:45:26;;;;;;;12.57;10.38;;;3.60;99.90;;;;;;5093217;28;20203;-67
2021/11/08 03:47:58;;;;;;;23.55;10.43;;;3.60;99.90;;;;;;5093353;28;20182;-67
2021/11/08 03:50:26;;;;;;;17.88;9.82;;;3.60;99.90;;;;;;5091477;28;20698;-67
2021/11/08 03:52:53;;;;;;;16.23;9.93;;;3.70;99.90;;;;;;5093119;28;20197;-67
2021/11/08 03:55:20;;;;;;;17.83;10.15;;;3.60;99.90;;;;;;5092820;28;20548;-67
2021/11/08 03:57:48;;;;;;;19.17;10.35;;;3.70;99.90;;;;;;5093001;28;20195;-67
2021/11/08 04:00:17;;;;;;;23.67;11.77;;;3.70;99.90;;;;;;5093029;28;20195;-67
2021/11/08 04:02:45;;;;;;;15.68;10.60;;;3.70;99.90;;;;;;5093059;28;20242;-67
2021/11/08 04:05:14;;;;;;;18.52;10.25;;;3.80;99.90;;;;;;5092875;28;20191;-67
2021/11/08 04:07:41;;;;;;;17.20;10.95;;;3.80;99.90;;;;;;5074453;28;20215;-67
2021/11/08 04:10:10;;;;;;;20.30;11.35;;;3.80;99.90;;;;;;5092352;28;20231;-67
2021/11/08 04:12:40;;;;;;;18.45;10.93;;;3.80;99.90;;;;;;5092987;28;20194;-67
2021/11/08 04:15:10;;;;;;;12.05;9.45;;;3.80;99.90;;;;;;5075048;28;20651;-67
2021/11/08 04:17:43;;;;;;;15.35;11.23;;;3.80;99.90;;;;;;5092555;28;20226;-67
2021/11/08 04:20:10;;;;;;;16.92;10.95;;;3.80;99.90;;;;;;5074867;28;20199;-67
2021/11/08 04:22:37;;;;;;;19.88;11.25;;;3.90;99.90;;;;;;5092945;28;20207;-67
2021/11/08 04:25:05;;;;;;;17.33;10.60;;;3.90;99.90;;;;;;5095258;28;20198;-67
2021/11/08 04:27:36;;;;;;;22.55;11.95;;;4.00;99.90;;;;;;5096496;28;20236;-67
2021/11/08 04:30:04;;;;;;;20.25;11.52;;;4.00;99.90;;;;;;5096511;28;20230;-67
2021/11/08 04:32:36;;;;;;;19.65;12.10;;;4.00;99.90;;;;;;5095122;28;20192;-67
2021/11/08 04:35:09;;;;;;;21.40;11.80;;;3.90;99.90;;;;;;5096141;28;20665;-67
2021/11/08 04:40:30;;;;;;;24.48;13.60;;;3.90;99.90;;;;;;5096282;28;20580;-67
2021/11/08 04:46:54;;;;;;;19.58;11.57;;;3.90;99.90;;;;;;5096095;28;20219;-67
2021/11/08 04:54:13;;;;;;;15.95;11.82;;;3.90;99.90;;;;;;5096004;28;20720;-67
2021/11/08 05:22:07;;;;;;;17.60;11.00;;;3.60;99.90;;;;;;5095512;28;20627;-67
2021/11/08 05:29:59;;;;;;;16.08;13.40;;;3.50;99.90;;;;;;5095304;28;20649;-67
2021/11/08 05:32:32;;;;;;;19.77;11.43;;;3.60;99.90;;;;;;5095297;28;20194;-67
2021/11/08 05:35:00;;;;;;;14.60;10.75;;;3.50;99.90;;;;;;5095027;28;20265;-67
2021/11/08 05:37:27;;;;;;;20.50;10.70;;;3.50;99.90;;;;;;5093109;28;20199;-67
2021/11/08 05:39:56;;;;;;;14.93;11.13;;;3.50;99.90;;;;;;5094966;28;20207;-67
2021/11/08 05:42:23;;;;;;;20.65;11.13;;;3.50;99.90;;;;;;5094662;28;20208;-67
2021/11/08 05:44:53;;;;;;;23.02;11.52;;;3.60;99.90;;;;;;5094807;28;20207;-67
2021/11/08 05:47:20;;;;;;;21.77;13.23;;;3.60;99.90;;;;;;5094990;28;20180;-67
2021/11/08 05:49:50;;;;;;;17.63;10.30;;;3.60;99.90;;;;;;5094616;28;20314;-67
2021/11/08 05:52:17;;;;;;;21.02;10.90;;;3.70;99.90;;;;;;5094802;28;20203;-67
2021/11/08 05:54:45;;;;;;;23.02;11.68;;;3.70;99.90;;;;;;5094622;28;20211;-66
2021/11/08 06:49:32;;;;;;;22.92;10.95;;;3.30;99.90;;;;;;5092993;28;20215;-67
2021/11/08 06:51:58;;;;;;;19.35;10.98;;;3.30;99.90;;;;;;5075611;28;20207;-66
2021/11/08 06:54:27;;;;;;;23.50;12.45;;;3.30;99.90;;;;;;5093401;28;20230;-67
2021/11/08 06:57:06;;;;;;;20.17;11.93;;;3.30;99.90;;;;;;5093540;28;20176;-67
2021/11/08 06:59:32;;;;;;;14.65;11.15;;;3.30;99.90;;;;;;5093029;28;20199;-67
2021/11/08 07:01:59;;;;;;;19.73;11.27;;;3.20;99.90;;;;;;5075132;28;20213;-67
2021/11/08 07:04:25;;;;;;;16.83;9.80;;;3.30;99.90;;;;;;5093327;28;20191;-67
2021/11/08 07:06:51;;;;;;;24.42;11.27;;;3.20;99.90;;;;;;5092783;28;20207;-67
2021/11/08 07:09:18;;;;;;;21.17;12.07;;;3.30;99.90;;;;;;5093295;28;20627;-67
2021/11/08 07:11:46;;;;;;;20.27;11.90;;;3.20;99.90;;;;;;5093475;28;20194;-67
2021/11/08 07:14:13;;;;;;;16.27;11.07;;;3.20;99.90;;;;;;5093736;28;20203;-67
2021/11/08 07:16:44;;;;;;;17.67;13.10;;;3.20;99.90;;;;;;5093274;28;20595;-67
2021/11/08 07:19:11;;;;;;;17.05;14.05;;;3.20;99.90;;;;;;5093182;28;20184;-68
2021/11/08 07:21:38;;;;;;;23.45;13.70;;;3.30;99.90;;;;;;5093315;28;20191;-66
2021/11/08 07:24:05;;;;;;;22.08;13.93;;;3.30;99.90;;;;;;5093260;28;20207;-65
2021/11/08 07:26:31;;;;;;;16.80;13.95;;;3.40;99.90;;;;;;5093368;28;20187;-66
2021/11/08 07:28:58;;;;;;;34.55;18.80;;;3.50;99.90;;;;;;5093270;28;20205;-66
2021/11/08 07:31:24;;;;;;;28.75;17.20;;;3.60;99.90;;;;;;5092503;28;20209;-66
2021/11/08 07:33:50;;;;;;;25.05;15.05;;;3.70;99.90;;;;;;5093338;28;20270;-66
2021/11/08 07:36:17;;;;;;;20.48;14.57;;;3.80;99.90;;;;;;5093307;28;20191;-66
2021/11/08 07:38:43;;;;;;;25.02;14.23;;;3.80;99.90;;;;;;5075555;28;20234;-67
2021/11/08 07:41:11;;;;;;;52.53;20.75;;;3.70;99.90;;;;;;5093524;28;20199;-66
2021/11/08 07:43:38;;;;;;;37.00;16.48;;;3.70;99.90;;;;;;5093078;28;20641;-66
2021/11/08 07:46:05;;;;;;;27.48;14.00;;;3.80;99.90;;;;;;5093299;28;20210;-66
2021/11/08 07:48:39;;;;;;;37.58;14.50;;;3.80;99.90;;;;;;5093196;28;20222;-66
2021/11/08 07:51:07;;;;;;;64.47;22.10;;;3.90;99.90;;;;;;5092880;28;20231;-66
2021/11/08 07:53:34;;;;;;;69.07;28.10;;;4.00;99.90;;;;;;5093419;28;20207;-67
2021/11/08 07:56:00;;;;;;;71.03;32.80;;;4.00;99.90;;;;;;5093040;28;20201;-67
2021/11/08 07:58:27;;;;;;;139.38;63.42;;;4.10;99.90;;;;;;5093067;28;20673;-67
2021/11/08 08:00:53;;;;;;;66.30;31.33;;;4.20;99.90;;;;;;5096887;28;20191;-67
2021/11/08 08:03:23;;;;;;;35.75;18.63;;;4.30;99.90;;;;;;5096965;28;20203;-67
2021/11/08 08:05:49;;;;;;;21.60;14.18;;;4.40;99.90;;;;;;5096655;28;20214;-68
2021/11/08 08:08:16;;;;;;;25.88;15.32;;;4.40;99.90;;;;;;5097200;28;20202;-68
2021/11/08 08:10:42;;;;;;;17.85;13.70;;;4.40;99.90;;;;;;5096295;28;20234;-68
2021/11/08 08:13:09;;;;;;;17.88;11.93;;;4.40;99.90;;;;;;5096502;28;20200;-68
2021/11/08 08:15:35;;;;;;;19.45;12.55;;;4.50;99.90;;;;;;5096584;28;20191;-68
2021/11/08 08:18:02;;;;;;;20.45;12.85;;;4.70;99.90;;;;;;5096442;28;20210;-68
2021/11/08 08:20:31;;;;;;;27.80;12.55;;;4.80;99.90;;;;;;5096496;28;20658;-68
2021/11/08 08:22:57;;;;;;;21.83;12.35;;;4.80;99.90;;;;;;5095853;28;20203;-68
2021/11/08 08:25:27;;;;;;;14.63;10.70;;;4.90;99.90;;;;;;5096310;28;20249;-68
2021/11/08 08:27:58;;;;;;;18.88;11.10;;;4.90;99.90;;;;;;5096354;28;20226;-68
2021/11/08 08:30:26;;;;;;;20.08;10.95;;;5.00;99.90;;;;;;5095859;28;20238;-68
2021/11/08 08:32:53;;;;;;;25.48;11.00;;;5.20;99.90;;;;;;5096627;28;20188;-68
2021/11/08 08:35:21;;;;;;;19.35;10.23;;;5.20;99.90;;;;;;5096294;28;20187;-68
2021/11/08 08:37:48;;;;;;;14.43;11.27;;;5.30;99.90;;;;;;5096248;28;20674;-68
2021/11/08 08:40:15;;;;;;;19.85;11.40;;;5.40;99.90;;;;;;5096345;28;20544;-68
2021/11/08 08:42:41;;;;;;;19.58;10.98;;;5.40;99.90;;;;;;5096373;28;20191;-68
2021/11/08 08:45:10;;;;;;;16.73;10.80;;;5.50;99.90;;;;;;5096348;28;20202;-68
2021/11/08 08:47:39;;;;;;;14.38;9.73;;;5.60;99.90;;;;;;5096034;28;20182;-66
2021/11/08 08:50:06;;;;;;;16.42;11.20;;;5.70;99.90;;;;;;5095815;28;20227;-66
2021/11/08 08:52:35;;;;;;;19.48;11.07;;;5.70;99.90;;;;;;5095794;28;20191;-66
2021/11/08 08:55:01;;;;;;;13.25;9.23;;;5.90;99.90;;;;;;5095831;28;20582;-66
2021/11/08 08:57:28;;;;;;;19.77;10.60;;;6.10;99.90;;;;;;5095941;28;20191;-67
2021/11/08 08:59:54;;;;;;;19.75;10.23;;;6.20;99.90;;;;;;5077768;28;20208;-67
2021/11/08 09:02:21;;;;;;;26.00;10.13;;;6.40;99.90;;;;;;5096060;28;20674;-67
2021/11/08 09:04:49;;;;;;;13.50;9.18;;;6.40;99.90;;;;;;5095695;28;20199;-68
2021/11/08 09:07:16;;;;;;;17.15;13.13;;;6.50;99.90;;;;;;5095671;28;20187;-68
2021/11/08 09:09:43;;;;;;;17.70;12.15;;;6.60;99.90;;;;;;5095012;28;20702;-68
2021/11/08 09:12:10;;;;;;;25.48;11.55;;;6.80;99.90;;;;;;5094399;28;20187;-68
2021/11/08 09:14:38;;;;;;;16.55;10.90;;;7.00;99.90;;;;;;5077358;28;20205;-68
2021/11/08 09:17:05;;;;;;;21.02;15.07;;;7.10;99.90;;;;;;5094842;28;20203;-68
2021/11/08 09:19:32;;;;;;;18.55;12.40;;;7.30;99.90;;;;;;5095214;28;20198;-68
2021/11/08 09:21:59;;;;;;;13.80;8.30;;;7.40;99.90;;;;;;5095063;28;20187;-68
2021/11/08 09:24:26;;;;;;;12.57;7.55;;;7.60;99.90;;;;;;5095070;28;20199;-68
2021/11/08 09:26:52;;;;;;;14.68;8.18;;;7.90;99.90;;;;;;5094885;28;20641;-68
2021/11/08 09:29:20;;;;;;;14.90;7.88;;;8.00;99.90;;;;;;5094858;28;20183;-68
2021/11/08 09:31:47;;;;;;;12.07;6.97;;;8.00;99.90;;;;;;5094386;28;20655;-67
2021/11/08 09:34:16;;;;;;;12.05;7.22;;;8.30;99.90;;;;;;5095386;28;20203;-67
2021/11/08 09:36:44;;;;;;;17.55;8.85;;;8.40;99.90;;;;;;5094835;28;20201;-66
2021/11/08 09:39:35;;;;;;;11.82;6.70;;;8.60;99.90;;;;;;5094551;28;20218;-66
2021/11/08 09:42:03;;;;;;;15.93;8.32;;;8.90;99.90;;;;;;5094753;28;20188;-67
2021/11/08 09:44:29;;;;;;;20.90;9.35;;;8.90;99.90;;;;;;5094609;28;20846;-66
2021/11/08 09:46:57;;;;;;;16.25;7.93;;;9.10;99.90;;;;;;5094541;28;20219;-66
2021/11/08 09:49:24;;;;;;;10.85;7.22;;;9.30;99.90;;;;;;5094583;28;20187;-65
2021/11/08 09:51:52;;;;;;;11.57;7.30;;;9.50;99.90;;;;;;5094603;28;20180;-67
2021/11/08 09:54:21;;;;;;;12.88;6.60;;;9.60;99.90;;;;;;5094293;28;20207;-67
2021/11/08 09:56:49;;;;;;;15.48;6.20;;;9.70;99.90;;;;;;5093940;28;20669;-67
2021/11/08 09:59:15;;;;;;;19.35;6.10;;;9.80;99.90;;;;;;5094357;28;20194;-67
2021/11/08 10:01:44;;;;;;;22.83;7.43;;;9.90;99.90;;;;;;5093889;28;20230;-67
2021/11/08 10:04:11;;;;;;;12.45;6.13;;;10.00;99.90;;;;;;5094301;28;20199;-67
2021/11/08 10:06:41;;;;;;;7.07;4.32;;;10.10;99.90;;;;;;5094279;28;20175;-67
2021/11/08 10:09:10;;;;;;;16.75;6.85;;;10.10;99.90;;;;;;5094051;28;20669;-67
2021/11/08 10:11:38;;;;;;;20.55;6.63;;;9.90;99.90;;;;;;5075967;28;20210;-68
2021/11/08 10:14:06;;;;;;;15.65;6.53;;;9.60;99.90;;;;;;5093956;28;20270;-68
2021/11/08 10:16:35;;;;;;;16.33;7.00;;;9.50;99.90;;;;;;5093988;28;20195;-67
2021/11/08 10:19:05;;;;;;;15.45;6.72;;;9.30;99.90;;;;;;5093771;28;20570;-67
2021/11/08 10:21:36;;;;;;;15.55;6.18;;;9.40;99.90;;;;;;5093752;28;20660;-68
2021/11/08 10:24:07;;;;;;;11.18;6.22;;;9.30;99.90;;;;;;5093126;28;20203;-67
2021/11/08 10:26:36;;;;;;;14.20;6.40;;;9.50;99.90;;;;;;5093947;28;20194;-67
2021/11/08 10:29:16;;;;;;;17.63;6.45;;;9.70;99.90;;;;;;5093181;28;20203;-67
2021/11/08 10:31:52;;;;;;;10.35;5.63;;;9.90;99.90;;;;;;5093512;28;20291;-67
2021/11/08 10:34:20;;;;;;;18.85;7.20;;;10.00;99.90;;;;;;5093880;28;20175;-67
2021/11/08 10:37:02;;;;;;;12.07;7.25;;;10.20;99.90;;;;;;5093882;28;20182;-67
2021/11/08 10:39:33;;;;;;;9.57;5.70;;;10.40;99.90;;;;;;5093559;28;20176;-68
2021/11/08 10:42:00;;;;;;;7.72;4.68;;;10.30;99.90;;;;;;5093334;28;20250;-67
2021/11/08 10:44:28;;;;;;;14.13;6.32;;;10.30;99.90;;;;;;5093564;28;20207;-67
2021/11/08 10:46:59;;;;;;;19.15;5.75;;;10.80;99.90;;;;;;5093396;28;20191;-67
2021/11/08 10:49:29;;;;;;;13.00;5.20;;;11.80;99.90;;;;;;5093364;28;20202;-67
2021/11/08 10:51:58;;;;;;;20.00;6.57;;;12.10;99.90;;;;;;5093444;28;20609;-67
2021/11/08 10:54:35;;;;;;;11.70;5.03;;;12.30;99.90;;;;;;5093285;28;20629;-68
2021/11/08 10:57:06;;;;;;;24.23;6.80;;;12.40;99.90;;;;;;5092992;28;20592;-67
2021/11/08 10:59:43;;;;;;;10.17;6.20;;;12.80;99.90;;;;;;5092906;28;20584;-68
2021/11/08 11:02:12;;;;;;;9.67;5.80;;;12.90;99.90;;;;;;5092500;28;20633;-68
2021/11/08 11:04:43;;;;;;;9.53;5.03;;;12.70;99.90;;;;;;5092801;28;20600;-68
2021/11/08 11:07:25;;;;;;;24.47;5.00;;;12.80;99.90;;;;;;5092155;28;20613;-66
2021/11/08 11:10:01;;;;;;;12.60;4.60;;;13.20;99.90;;;;;;5092754;28;20628;-67
2021/11/08 11:12:29;;;;;;;9.30;3.40;;;13.00;99.90;;;;;;5093112;28;20926;-67
2021/11/08 11:14:58;;;;;;;11.30;5.03;;;12.90;99.90;;;;;;5092574;28;20662;-66
2021/11/08 11:17:27;;;;;;;11.80;4.57;;;13.00;99.90;;;;;;5092870;28;20609;-66
2021/11/08 11:20:15;;;;;;;10.50;4.80;;;13.10;99.90;;;;;;5093089;28;20931;-67
2021/11/08 11:22:46;;;;;;;9.53;3.87;;;13.20;99.90;;;;;;5093217;28;20561;-67
2021/11/08 11:25:16;;;;;;;20.00;4.70;;;13.70;99.90;;;;;;5074729;28;20641;-67
2021/11/08 11:27:48;;;;;;;16.53;5.40;;;14.10;99.90;;;;;;5092979;28;20609;-68
2021/11/08 11:30:24;;;;;;;13.17;4.23;;;14.10;99.90;;;;;;5092325;28;20631;-67
2021/11/08 11:33:02;;;;;;;12.13;4.10;;;14.30;99.90;;;;;;5092665;28;20927;-67
2021/11/08 11:35:33;;;;;;;11.63;3.50;;;13.70;99.90;;;;;;5096181;28;20617;-67
2021/11/08 11:38:04;;;;;;;16.23;4.30;;;14.00;99.90;;;;;;5097233;28;20553;-67
2021/11/08 11:40:34;;;;;;;11.50;3.83;;;14.20;99.90;;;;;;5096815;28;20624;-67
2021/11/08 11:43:11;;;;;;;10.90;5.00;;;13.60;99.90;;;;;;5096971;28;20554;-67
2021/11/08 11:45:46;;;;;;;9.23;4.03;;;13.30;99.90;;;;;;5079159;28;20611;-67
2021/11/08 11:48:13;;;;;;;9.57;4.10;;;13.90;99.90;;;;;;5096771;28;20587;-67
2021/11/08 11:50:40;;;;;;;7.43;4.20;;;14.10;99.90;;;;;;5096595;28;20735;-67
2021/11/08 11:53:07;;;;;;;13.03;5.07;;;13.90;99.90;;;;;;5096687;28;20613;-67
2021/11/08 11:55:37;;;;;;;12.07;5.10;;;14.50;99.90;;;;;;5096671;28;21024;-67
2021/11/08 11:58:04;;;;;;;10.67;4.87;;;14.90;99.90;;;;;;5096791;28;20600;-67
2021/11/08 12:00:37;;;;;;;11.23;4.73;;;15.10;99.90;;;;;;5096044;28;20627;-67
2021/11/08 12:03:04;;;;;;;10.57;4.40;;;14.90;99.90;;;;;;5096539;28;21127;-67
2021/11/08 12:05:31;;;;;;;12.10;4.70;;;15.20;99.90;;;;;;5096333;28;20612;-67
2021/11/08 12:08:04;;;;;;;9.57;4.57;;;15.90;99.90;;;;;;5078049;28;20706;-67
2021/11/08 12:10:33;;;;;;;14.30;4.80;;;15.90;99.90;;;;;;5096251;28;21135;-67
2021/11/08 12:13:00;;;;;;;14.77;4.57;;;16.10;99.90;;;;;;5096521;28;21132;-67
2021/11/08 12:15:30;;;;;;;12.87;4.50;;;16.20;99.90;;;;;;5096643;28;20616;-67
2021/11/08 12:18:08;;;;;;;10.37;4.23;;;16.50;99.90;;;;;;5096377;28;20600;-67
2021/11/08 12:20:45;;;;;;;9.50;4.03;;;16.30;99.90;;;;;;5096392;28;20636;-67
2021/11/08 12:23:20;;;;;;;16.03;5.00;;;15.60;99.90;;;;;;5096397;28;20564;-67
2021/11/08 12:25:51;;;;;;;18.00;4.50;;;15.20;99.90;;;;;;5096225;28;20549;-66
2021/11/08 12:28:26;;;;;;;12.17;5.03;;;15.60;99.90;;;;;;5095979;28;20623;-66
2021/11/08 12:30:58;;;;;;;9.43;4.63;;;15.70;99.90;;;;;;5096001;28;20639;-66
2021/11/08 12:33:32;;;;;;;13.57;4.27;;;15.50;99.90;;;;;;5096146;28;20579;-67
2021/11/08 12:36:06;;;;;;;10.33;4.77;;;15.30;99.90;;;;;;5095923;28;20625;-67
2021/11/08 12:38:58;;;;;;;11.73;4.70;;;15.30;99.90;;;;;;5095936;28;20573;-67
2021/11/08 12:41:49;;;;;;;12.73;4.53;;;16.30;99.90;;;;;;5095782;28;20621;-67
2021/11/08 12:44:22;;;;;;;14.03;4.47;;;16.40;99.90;;;;;;5095750;28;20556;-67
2021/11/08 12:46:52;;;;;;;11.47;6.50;;;16.30;99.90;;;;;;5095044;28;20611;-67
2021/11/08 12:49:30;;;;;;;10.83;5.40;;;14.90;99.90;;;;;;5095499;28;20651;-67
2021/11/08 12:52:00;;;;;;;12.33;4.90;;;14.30;99.90;;;;;;5094676;28;20652;-67
2021/11/08 12:54:29;;;;;;;19.40;6.97;;;13.30;99.90;;;;;;5096102;28;20970;-67
2021/11/08 12:57:25;;;;;;;11.13;5.80;;;13.40;99.90;;;;;;5095651;28;20594;-67
2021/11/08 12:59:55;;;;;;;13.70;5.83;;;13.40;99.90;;;;;;5078931;28;20610;-67
2021/11/08 13:02:53;;;;;;;9.67;5.10;;;13.40;99.90;;;;;;5095286;28;20695;-66
2021/11/08 13:05:33;;;;;;;14.57;5.07;;;13.50;99.90;;;;;;5095881;28;20573;-65
2021/11/08 13:08:01;;;;;;;12.47;5.33;;;13.20;99.90;;;;;;5077061;28;21244;-65
2021/11/08 13:10:34;;;;;;;14.23;5.03;;;12.90;99.90;;;;;;5095496;28;20709;-67
2021/11/08 13:13:02;;;;;;;18.90;4.90;;;14.00;99.90;;;;;;5095444;28;20910;-66
2021/11/08 13:15:31;;;;;;;12.00;4.33;;;14.10;99.90;;;;;;5095163;28;20714;-67
2021/11/08 13:17:57;;;;;;;15.10;5.00;;;13.70;99.90;;;;;;5095182;28;21133;-66
2021/11/08 13:20:28;;;;;;;13.43;4.00;;;13.60;99.90;;;;;;5094343;28;20728;-66
2021/11/08 13:23:02;;;;;;;15.63;5.70;;;13.20;99.90;;;;;;5095284;28;20568;-66
2021/11/08 13:25:32;;;;;;;9.90;4.90;;;13.10;99.90;;;;;;5077694;28;21158;-66
2021/11/08 13:28:06;;;;;;;14.00;5.13;;;12.90;99.90;;;;;;5077877;28;20580;-67
2021/11/08 13:30:39;;;;;;;9.50;4.50;;;12.80;99.90;;;;;;5095024;28;20949;-66
2021/11/08 13:33:12;;;;;;;6.67;3.73;;;12.90;99.90;;;;;;5095127;28;20598;-65
2021/11/08 13:35:42;;;;;;;11.00;4.90;;;12.70;99.90;;;;;;5094852;28;20535;-65
2021/11/08 13:38:15;;;;;;;16.83;5.77;;;12.60;99.90;;;;;;5094875;28;20564;-65
2021/11/08 13:40:49;;;;;;;13.67;4.63;;;12.20;99.90;;;;;;5094877;28;20696;-65
2021/11/08 13:43:24;;;;;;;14.10;4.03;;;12.30;99.90;;;;;;5094081;28;20976;-65
2021/11/08 13:46:01;;;;;;;13.50;4.33;;;12.30;99.90;;;;;;5094746;28;20547;-66
2021/11/08 13:48:46;;;;;;;11.83;3.40;;;12.10;99.90;;;;;;5094820;28;20545;-67
2021/11/08 13:51:23;;;;;;;11.48;4.18;;;12.10;99.90;;;;;;5093557;28;20754;-66
2021/11/08 13:54:05;;;;;;;11.63;4.20;;;12.10;99.90;;;;;;5094507;28;20309;-66
2021/11/08 13:56:38;;;;;;;14.17;4.73;;;12.00;99.90;;;;;;5093840;28;20171;-66
2021/11/08 13:59:11;;;;;;;8.10;4.10;;;11.90;99.90;;;;;;5095314;28;21091;-66
2021/11/08 14:01:45;;;;;;;7.97;4.40;;;11.90;99.90;;;;;;5094330;28;20604;-66
2021/11/08 14:04:12;;;;;;;17.45;5.55;;;11.90;99.90;;;;;;5094492;28;20653;-66
2021/11/08 14:06:42;;;;;;;16.77;5.05;;;11.90;99.90;;;;;;5094359;28;20231;-67
2021/11/08 14:09:20;;;;;;;17.77;5.57;;;11.90;99.90;;;;;;5093748;28;20196;-66
2021/11/08 14:11:55;;;;;;;10.35;4.72;;;11.80;99.90;;;;;;5094353;28;20207;-66
2021/11/08 14:14:27;;;;;;;17.38;6.30;;;11.60;99.90;;;;;;5093694;28;20203;-67
2021/11/08 14:17:06;;;;;;;11.20;5.45;;;11.70;99.90;;;;;;5093860;28;20203;-67
2021/11/08 14:19:32;;;;;;;16.13;4.53;;;11.60;99.90;;;;;;5094352;28;20175;-66
2021/11/08 14:21:59;;;;;;;12.32;5.68;;;11.60;99.90;;;;;;5093948;28;20191;-66
2021/11/08 14:24:26;;;;;;;19.10;6.38;;;11.50;99.90;;;;;;5093650;28;20556;-66
2021/11/08 14:26:55;;;;;;;12.10;4.68;;;11.40;99.90;;;;;;5093862;28;20183;-67
2021/11/08 14:29:26;;;;;;;22.15;5.60;;;11.30;99.90;;;;;;5093849;28;20205;-66
2021/11/08 14:31:59;;;;;;;10.75;4.95;;;11.30;99.90;;;;;;5094100;28;20230;-66
2021/11/08 14:34:31;;;;;;;14.95;4.72;;;11.30;99.90;;;;;;5093963;28;20180;-66